sensor_id;sensor_type;location;lat;lon;timestamp;P1;durP1;ratioP1;P2;durP2;ratioP2
82835;SDS011;72587;50.746;8.246;2023-09-30T00:02:12;20.97;;;8.40;;
82835;SDS011;72587;50.746;8.246;2023-09-30T00:04:38;17.07;;;8.30;;
82835;SDS011;72587;50.746;8.246;2023-09-30T00:07:04;16.43;;;7.83;;
82835;SDS011;72587;50.746;8.246;2023-09-30T00:09:30;16.80;;;8.13;;
82835;SDS011;72587;50.746;8.246;2023-09-30T00:11:55;15.40;;;8.33;;
82835;SDS011;72587;50.746;8.246;2023-09-30T00:14:21;20.27;;;7.90;;
82835;SDS011;72587;50.746;8.246;2023-09-30T00:16:46;14.77;;;8.47;;
82835;SDS011;72587;50.746;8.246;2023-09-30T00:19:12;19.23;;;8.90;;
82835;SDS011;72587;50.746;8.246;2023-09-30T00:21:38;19.83;;;9.17;;
82835;SDS011;72587;50.746;8.246;2023-09-30T00:24:04;17.13;;;8.30;;
82835;SDS011;72587;50.746;8.246;2023-09-30T00:26:30;17.73;;;8.83;;
82835;SDS011;72587;50.746;8.246;2023-09-30T00:28:56;20.97;;;9.07;;
82835;SDS011;72587;50.746;8.246;2023-09-30T00:31:21;17.97;;;8.73;;
82835;SDS011;72587;50.746;8.246;2023-09-30T00:33:47;20.07;;;8.70;;
82835;SDS011;72587;50.746;8.246;2023-09-30T00:36:13;21.80;;;8.43;;
82835;SDS011;72587;50.746;8.246;2023-09-30T00:38:38;17.03;;;8.23;;
82835;SDS011;72587;50.746;8.246;2023-09-30T00:41:05;17.67;;;8.33;;
82835;SDS011;72587;50.746;8.246;2023-09-30T00:43:31;19.97;;;7.90;;
82835;SDS011;72587;50.746;8.246;2023-09-30T00:48:42;14.43;;;7.67;;
82835;SDS011;72587;50.746;8.246;2023-09-30T00:51:08;19.90;;;7.97;;
82835;SDS011;72587;50.746;8.246;2023-09-30T00:53:34;16.40;;;7.63;;
82835;SDS011;72587;50.746;8.246;2023-09-30T00:55:59;13.57;;;7.17;;
82835;SDS011;72587;50.746;8.246;2023-09-30T00:58:25;15.00;;;7.77;;
82835;SDS011;72587;50.746;8.246;2023-09-30T01:00:54;12.07;;;7.60;;
82835;SDS011;72587;50.746;8.246;2023-09-30T01:03:22;15.33;;;8.37;;
82835;SDS011;72587;50.746;8.246;2023-09-30T01:05:48;14.90;;;7.60;;
82835;SDS011;72587;50.746;8.246;2023-09-30T01:08:14;12.50;;;7.37;;
82835;SDS011;72587;50.746;8.246;2023-09-30T01:10:41;16.20;;;8.20;;
82835;SDS011;72587;50.746;8.246;2023-09-30T01:13:07;12.60;;;7.50;;
82835;SDS011;72587;50.746;8.246;2023-09-30T01:15:32;15.53;;;7.33;;
82835;SDS011;72587;50.746;8.246;2023-09-30T01:17:58;18.93;;;8.13;;
82835;SDS011;72587;50.746;8.246;2023-09-30T01:20:23;11.97;;;7.20;;
82835;SDS011;72587;50.746;8.246;2023-09-30T01:22:49;17.80;;;7.90;;
82835;SDS011;72587;50.746;8.246;2023-09-30T01:25:15;17.93;;;7.83;;
82835;SDS011;72587;50.746;8.246;2023-09-30T01:27:42;15.20;;;7.37;;
82835;SDS011;72587;50.746;8.246;2023-09-30T01:30:08;22.60;;;8.20;;
82835;SDS011;72587;50.746;8.246;2023-09-30T01:32:36;15.77;;;7.80;;
82835;SDS011;72587;50.746;8.246;2023-09-30T01:35:02;16.03;;;7.70;;
82835;SDS011;72587;50.746;8.246;2023-09-30T01:37:27;15.90;;;7.40;;
82835;SDS011;72587;50.746;8.246;2023-09-30T01:39:53;20.47;;;8.20;;
82835;SDS011;72587;50.746;8.246;2023-09-30T01:42:20;17.47;;;7.70;;
82835;SDS011;72587;50.746;8.246;2023-09-30T01:44:45;17.97;;;8.47;;
82835;SDS011;72587;50.746;8.246;2023-09-30T01:47:11;14.60;;;7.80;;
82835;SDS011;72587;50.746;8.246;2023-09-30T01:49:37;17.13;;;8.13;;
82835;SDS011;72587;50.746;8.246;2023-09-30T01:52:03;16.70;;;7.77;;
82835;SDS011;72587;50.746;8.246;2023-09-30T01:54:28;18.00;;;7.50;;
82835;SDS011;72587;50.746;8.246;2023-09-30T01:56:54;22.13;;;8.63;;
82835;SDS011;72587;50.746;8.246;2023-09-30T01:59:19;12.93;;;7.27;;
82835;SDS011;72587;50.746;8.246;2023-09-30T02:01:46;16.60;;;7.97;;
82835;SDS011;72587;50.746;8.246;2023-09-30T02:04:12;18.33;;;7.93;;
82835;SDS011;72587;50.746;8.246;2023-09-30T02:06:40;23.40;;;9.23;;
82835;SDS011;72587;50.746;8.246;2023-09-30T02:09:09;16.57;;;8.27;;
82835;SDS011;72587;50.746;8.246;2023-09-30T02:11:35;17.77;;;7.40;;
82835;SDS011;72587;50.746;8.246;2023-09-30T02:14:02;17.83;;;7.63;;
82835;SDS011;72587;50.746;8.246;2023-09-30T02:16:27;18.17;;;8.00;;
82835;SDS011;72587;50.746;8.246;2023-09-30T02:18:53;15.60;;;7.70;;
82835;SDS011;72587;50.746;8.246;2023-09-30T02:21:18;17.37;;;8.17;;
82835;SDS011;72587;50.746;8.246;2023-09-30T02:23:44;15.93;;;7.40;;
82835;SDS011;72587;50.746;8.246;2023-09-30T02:26:13;17.43;;;7.83;;
82835;SDS011;72587;50.746;8.246;2023-09-30T02:28:39;17.47;;;8.50;;
82835;SDS011;72587;50.746;8.246;2023-09-30T02:31:05;15.60;;;7.53;;
82835;SDS011;72587;50.746;8.246;2023-09-30T02:33:32;17.57;;;7.63;;
82835;SDS011;72587;50.746;8.246;2023-09-30T02:36:02;20.20;;;8.07;;
82835;SDS011;72587;50.746;8.246;2023-09-30T02:38:30;17.10;;;8.37;;
82835;SDS011;72587;50.746;8.246;2023-09-30T02:40:56;14.10;;;7.70;;
82835;SDS011;72587;50.746;8.246;2023-09-30T02:43:22;17.23;;;8.20;;
82835;SDS011;72587;50.746;8.246;2023-09-30T02:45:47;16.97;;;8.23;;
82835;SDS011;72587;50.746;8.246;2023-09-30T02:48:13;17.20;;;8.50;;
82835;SDS011;72587;50.746;8.246;2023-09-30T02:50:38;18.03;;;7.93;;
82835;SDS011;72587;50.746;8.246;2023-09-30T02:53:09;13.33;;;7.33;;
82835;SDS011;72587;50.746;8.246;2023-09-30T02:55:34;16.90;;;7.63;;
82835;SDS011;72587;50.746;8.246;2023-09-30T02:58:00;16.13;;;7.90;;
82835;SDS011;72587;50.746;8.246;2023-09-30T03:00:26;18.57;;;9.17;;
82835;SDS011;72587;50.746;8.246;2023-09-30T03:02:55;14.00;;;7.70;;
82835;SDS011;72587;50.746;8.246;2023-09-30T03:05:21;18.13;;;7.90;;
82835;SDS011;72587;50.746;8.246;2023-09-30T03:07:48;19.00;;;8.07;;
82835;SDS011;72587;50.746;8.246;2023-09-30T03:10:15;13.07;;;7.47;;
82835;SDS011;72587;50.746;8.246;2023-09-30T03:12:49;19.93;;;8.23;;
82835;SDS011;72587;50.746;8.246;2023-09-30T03:15:15;18.10;;;7.77;;
82835;SDS011;72587;50.746;8.246;2023-09-30T03:17:41;19.73;;;7.63;;
82835;SDS011;72587;50.746;8.246;2023-09-30T03:20:08;18.33;;;7.87;;
82835;SDS011;72587;50.746;8.246;2023-09-30T03:22:39;17.93;;;7.80;;
82835;SDS011;72587;50.746;8.246;2023-09-30T03:25:06;14.67;;;7.33;;
82835;SDS011;72587;50.746;8.246;2023-09-30T03:27:32;17.40;;;8.30;;
82835;SDS011;72587;50.746;8.246;2023-09-30T03:29:59;16.53;;;7.40;;
82835;SDS011;72587;50.746;8.246;2023-09-30T03:32:26;19.73;;;8.60;;
82835;SDS011;72587;50.746;8.246;2023-09-30T03:34:52;15.13;;;7.93;;
82835;SDS011;72587;50.746;8.246;2023-09-30T03:37:18;14.00;;;7.13;;
82835;SDS011;72587;50.746;8.246;2023-09-30T03:39:44;13.53;;;7.30;;
82835;SDS011;72587;50.746;8.246;2023-09-30T03:42:14;20.10;;;8.47;;
82835;SDS011;72587;50.746;8.246;2023-09-30T03:44:39;19.10;;;7.87;;
82835;SDS011;72587;50.746;8.246;2023-09-30T03:47:05;15.63;;;8.40;;
82835;SDS011;72587;50.746;8.246;2023-09-30T03:49:32;16.40;;;7.53;;
82835;SDS011;72587;50.746;8.246;2023-09-30T03:51:58;15.17;;;8.37;;
82835;SDS011;72587;50.746;8.246;2023-09-30T03:54:23;20.40;;;7.60;;
82835;SDS011;72587;50.746;8.246;2023-09-30T03:56:49;16.77;;;7.33;;
82835;SDS011;72587;50.746;8.246;2023-09-30T03:59:14;13.77;;;7.90;;
82835;SDS011;72587;50.746;8.246;2023-09-30T04:01:41;15.27;;;7.50;;
82835;SDS011;72587;50.746;8.246;2023-09-30T04:04:07;14.77;;;8.23;;
82835;SDS011;72587;50.746;8.246;2023-09-30T04:06:35;13.60;;;7.77;;
82835;SDS011;72587;50.746;8.246;2023-09-30T04:09:03;13.10;;;7.70;;
82835;SDS011;72587;50.746;8.246;2023-09-30T04:11:34;15.77;;;8.53;;
82835;SDS011;72587;50.746;8.246;2023-09-30T04:14:01;13.93;;;8.23;;
82835;SDS011;72587;50.746;8.246;2023-09-30T04:16:26;17.80;;;8.23;;
82835;SDS011;72587;50.746;8.246;2023-09-30T04:18:54;18.17;;;8.20;;
82835;SDS011;72587;50.746;8.246;2023-09-30T04:21:20;17.47;;;7.87;;
82835;SDS011;72587;50.746;8.246;2023-09-30T04:23:46;20.20;;;8.93;;
82835;SDS011;72587;50.746;8.246;2023-09-30T04:26:11;18.57;;;8.57;;
82835;SDS011;72587;50.746;8.246;2023-09-30T04:28:37;15.43;;;7.50;;
82835;SDS011;72587;50.746;8.246;2023-09-30T04:31:03;15.83;;;7.60;;
82835;SDS011;72587;50.746;8.246;2023-09-30T04:33:30;18.57;;;8.47;;
82835;SDS011;72587;50.746;8.246;2023-09-30T04:36:00;18.00;;;8.40;;
82835;SDS011;72587;50.746;8.246;2023-09-30T04:38:26;13.40;;;7.90;;
82835;SDS011;72587;50.746;8.246;2023-09-30T04:40:52;13.93;;;7.60;;
82835;SDS011;72587;50.746;8.246;2023-09-30T04:43:19;17.57;;;8.50;;
82835;SDS011;72587;50.746;8.246;2023-09-30T04:45:46;19.40;;;8.77;;
82835;SDS011;72587;50.746;8.246;2023-09-30T04:48:12;14.77;;;8.10;;
82835;SDS011;72587;50.746;8.246;2023-09-30T04:50:38;16.60;;;8.53;;
82835;SDS011;72587;50.746;8.246;2023-09-30T04:53:04;21.07;;;8.60;;
82835;SDS011;72587;50.746;8.246;2023-09-30T04:55:30;16.97;;;8.60;;
82835;SDS011;72587;50.746;8.246;2023-09-30T04:57:56;16.00;;;8.23;;
82835;SDS011;72587;50.746;8.246;2023-09-30T05:00:21;16.63;;;8.07;;
82835;SDS011;72587;50.746;8.246;2023-09-30T05:02:50;16.73;;;7.77;;
82835;SDS011;72587;50.746;8.246;2023-09-30T05:05:17;22.43;;;9.17;;
82835;SDS011;72587;50.746;8.246;2023-09-30T05:07:43;19.93;;;8.53;;
82835;SDS011;72587;50.746;8.246;2023-09-30T05:10:10;20.83;;;8.80;;
82835;SDS011;72587;50.746;8.246;2023-09-30T05:12:38;16.43;;;8.30;;
82835;SDS011;72587;50.746;8.246;2023-09-30T05:15:05;18.63;;;8.30;;
82835;SDS011;72587;50.746;8.246;2023-09-30T05:17:31;18.53;;;9.00;;
82835;SDS011;72587;50.746;8.246;2023-09-30T05:19:57;20.73;;;9.47;;
82835;SDS011;72587;50.746;8.246;2023-09-30T05:22:23;21.30;;;9.53;;
82835;SDS011;72587;50.746;8.246;2023-09-30T05:24:52;23.67;;;10.87;;
82835;SDS011;72587;50.746;8.246;2023-09-30T05:27:18;19.30;;;9.50;;
82835;SDS011;72587;50.746;8.246;2023-09-30T05:29:44;25.97;;;9.87;;
82835;SDS011;72587;50.746;8.246;2023-09-30T05:32:10;21.93;;;9.80;;
82835;SDS011;72587;50.746;8.246;2023-09-30T05:34:36;28.93;;;11.10;;
82835;SDS011;72587;50.746;8.246;2023-09-30T05:37:04;29.00;;;10.83;;
82835;SDS011;72587;50.746;8.246;2023-09-30T05:39:29;28.17;;;10.40;;
82835;SDS011;72587;50.746;8.246;2023-09-30T05:41:56;25.60;;;10.53;;
82835;SDS011;72587;50.746;8.246;2023-09-30T05:44:25;28.93;;;10.60;;
82835;SDS011;72587;50.746;8.246;2023-09-30T05:46:53;22.87;;;10.90;;
82835;SDS011;72587;50.746;8.246;2023-09-30T05:49:19;35.10;;;11.23;;
82835;SDS011;72587;50.746;8.246;2023-09-30T05:51:45;29.97;;;11.37;;
82835;SDS011;72587;50.746;8.246;2023-09-30T05:54:15;27.27;;;10.60;;
82835;SDS011;72587;50.746;8.246;2023-09-30T05:56:41;31.40;;;11.73;;
82835;SDS011;72587;50.746;8.246;2023-09-30T05:59:08;34.57;;;11.70;;
82835;SDS011;72587;50.746;8.246;2023-09-30T06:01:34;28.50;;;11.33;;
82835;SDS011;72587;50.746;8.246;2023-09-30T06:04:01;35.43;;;12.67;;
82835;SDS011;72587;50.746;8.246;2023-09-30T06:06:27;29.10;;;10.50;;
82835;SDS011;72587;50.746;8.246;2023-09-30T06:08:56;24.47;;;9.30;;
82835;SDS011;72587;50.746;8.246;2023-09-30T06:11:25;23.37;;;10.13;;
82835;SDS011;72587;50.746;8.246;2023-09-30T06:13:56;25.97;;;9.70;;
82835;SDS011;72587;50.746;8.246;2023-09-30T06:16:26;29.70;;;11.30;;
82835;SDS011;72587;50.746;8.246;2023-09-30T06:18:52;24.90;;;9.67;;
82835;SDS011;72587;50.746;8.246;2023-09-30T06:21:18;23.03;;;9.40;;
82835;SDS011;72587;50.746;8.246;2023-09-30T06:23:49;24.80;;;9.80;;
82835;SDS011;72587;50.746;8.246;2023-09-30T06:26:17;25.07;;;9.73;;
82835;SDS011;72587;50.746;8.246;2023-09-30T06:28:43;20.23;;;8.93;;
82835;SDS011;72587;50.746;8.246;2023-09-30T06:31:10;21.77;;;10.07;;
82835;SDS011;72587;50.746;8.246;2023-09-30T06:33:36;20.93;;;8.90;;
82835;SDS011;72587;50.746;8.246;2023-09-30T06:36:07;22.70;;;9.17;;
82835;SDS011;72587;50.746;8.246;2023-09-30T06:38:33;21.83;;;9.73;;
82835;SDS011;72587;50.746;8.246;2023-09-30T06:40:59;23.17;;;9.07;;
82835;SDS011;72587;50.746;8.246;2023-09-30T06:43:26;21.53;;;8.80;;
82835;SDS011;72587;50.746;8.246;2023-09-30T06:45:53;20.27;;;9.23;;
82835;SDS011;72587;50.746;8.246;2023-09-30T06:48:19;23.30;;;9.20;;
82835;SDS011;72587;50.746;8.246;2023-09-30T06:50:45;24.53;;;9.03;;
82835;SDS011;72587;50.746;8.246;2023-09-30T06:53:13;22.33;;;9.97;;
82835;SDS011;72587;50.746;8.246;2023-09-30T06:55:46;19.30;;;8.40;;
82835;SDS011;72587;50.746;8.246;2023-09-30T06:58:12;20.20;;;8.30;;
82835;SDS011;72587;50.746;8.246;2023-09-30T07:00:40;20.37;;;8.47;;
82835;SDS011;72587;50.746;8.246;2023-09-30T07:03:06;20.37;;;9.10;;
82835;SDS011;72587;50.746;8.246;2023-09-30T07:05:35;22.00;;;8.77;;
82835;SDS011;72587;50.746;8.246;2023-09-30T07:08:01;17.90;;;8.00;;
82835;SDS011;72587;50.746;8.246;2023-09-30T07:10:27;17.33;;;7.20;;
82835;SDS011;72587;50.746;8.246;2023-09-30T07:12:56;26.73;;;7.87;;
82835;SDS011;72587;50.746;8.246;2023-09-30T07:15:22;19.80;;;7.43;;
82835;SDS011;72587;50.746;8.246;2023-09-30T07:17:48;16.50;;;6.47;;
82835;SDS011;72587;50.746;8.246;2023-09-30T07:20:14;20.50;;;6.87;;
82835;SDS011;72587;50.746;8.246;2023-09-30T07:22:40;17.17;;;7.27;;
82835;SDS011;72587;50.746;8.246;2023-09-30T07:25:06;13.83;;;6.50;;
82835;SDS011;72587;50.746;8.246;2023-09-30T07:27:33;14.57;;;7.10;;
82835;SDS011;72587;50.746;8.246;2023-09-30T07:29:59;15.87;;;7.27;;
82835;SDS011;72587;50.746;8.246;2023-09-30T07:32:24;13.77;;;6.50;;
82835;SDS011;72587;50.746;8.246;2023-09-30T07:34:50;14.77;;;6.67;;
82835;SDS011;72587;50.746;8.246;2023-09-30T07:37:16;16.97;;;6.67;;
82835;SDS011;72587;50.746;8.246;2023-09-30T07:39:45;16.80;;;6.77;;
82835;SDS011;72587;50.746;8.246;2023-09-30T07:42:11;16.87;;;6.90;;
82835;SDS011;72587;50.746;8.246;2023-09-30T07:44:37;12.53;;;6.30;;
82835;SDS011;72587;50.746;8.246;2023-09-30T07:47:03;14.40;;;7.30;;
82835;SDS011;72587;50.746;8.246;2023-09-30T07:49:31;16.03;;;7.10;;
82835;SDS011;72587;50.746;8.246;2023-09-30T07:51:57;12.43;;;7.03;;
82835;SDS011;72587;50.746;8.246;2023-09-30T07:54:23;15.93;;;7.20;;
82835;SDS011;72587;50.746;8.246;2023-09-30T07:56:49;15.57;;;7.70;;
82835;SDS011;72587;50.746;8.246;2023-09-30T07:59:14;12.97;;;6.87;;
82835;SDS011;72587;50.746;8.246;2023-09-30T08:01:40;16.00;;;7.17;;
82835;SDS011;72587;50.746;8.246;2023-09-30T08:04:06;15.30;;;6.70;;
82835;SDS011;72587;50.746;8.246;2023-09-30T08:06:32;17.27;;;7.50;;
82835;SDS011;72587;50.746;8.246;2023-09-30T08:08:57;12.87;;;6.63;;
82835;SDS011;72587;50.746;8.246;2023-09-30T08:11:23;15.73;;;7.43;;
82835;SDS011;72587;50.746;8.246;2023-09-30T08:13:52;17.57;;;7.47;;
82835;SDS011;72587;50.746;8.246;2023-09-30T08:16:18;17.50;;;7.43;;
82835;SDS011;72587;50.746;8.246;2023-09-30T08:18:44;14.37;;;8.17;;
82835;SDS011;72587;50.746;8.246;2023-09-30T08:21:10;15.10;;;7.00;;
82835;SDS011;72587;50.746;8.246;2023-09-30T08:23:38;18.27;;;7.40;;
82835;SDS011;72587;50.746;8.246;2023-09-30T08:26:05;14.03;;;6.80;;
82835;SDS011;72587;50.746;8.246;2023-09-30T08:28:31;14.43;;;6.97;;
82835;SDS011;72587;50.746;8.246;2023-09-30T08:31:01;14.87;;;7.27;;
82835;SDS011;72587;50.746;8.246;2023-09-30T08:33:30;16.20;;;7.10;;
82835;SDS011;72587;50.746;8.246;2023-09-30T08:36:01;18.27;;;7.07;;
82835;SDS011;72587;50.746;8.246;2023-09-30T08:38:31;16.07;;;7.27;;
82835;SDS011;72587;50.746;8.246;2023-09-30T08:40:57;13.37;;;6.37;;
82835;SDS011;72587;50.746;8.246;2023-09-30T08:43:25;14.43;;;6.23;;
82835;SDS011;72587;50.746;8.246;2023-09-30T08:45:56;11.63;;;5.80;;
82835;SDS011;72587;50.746;8.246;2023-09-30T08:48:26;11.70;;;6.03;;
82835;SDS011;72587;50.746;8.246;2023-09-30T08:50:52;11.33;;;5.63;;
82835;SDS011;72587;50.746;8.246;2023-09-30T08:53:22;10.53;;;5.10;;
82835;SDS011;72587;50.746;8.246;2023-09-30T08:55:49;9.83;;;5.07;;
82835;SDS011;72587;50.746;8.246;2023-09-30T08:58:18;10.00;;;4.80;;
82835;SDS011;72587;50.746;8.246;2023-09-30T09:00:44;9.30;;;4.77;;
82835;SDS011;72587;50.746;8.246;2023-09-30T09:03:10;9.30;;;4.70;;
82835;SDS011;72587;50.746;8.246;2023-09-30T09:05:36;10.63;;;4.80;;
82835;SDS011;72587;50.746;8.246;2023-09-30T09:08:02;8.90;;;4.60;;
82835;SDS011;72587;50.746;8.246;2023-09-30T09:10:28;8.27;;;4.03;;
82835;SDS011;72587;50.746;8.246;2023-09-30T09:12:54;7.80;;;4.23;;
82835;SDS011;72587;50.746;8.246;2023-09-30T09:15:25;6.80;;;3.70;;
82835;SDS011;72587;50.746;8.246;2023-09-30T09:17:53;8.27;;;3.50;;
82835;SDS011;72587;50.746;8.246;2023-09-30T09:20:20;8.57;;;3.13;;
82835;SDS011;72587;50.746;8.246;2023-09-30T09:22:52;6.73;;;2.57;;
82835;SDS011;72587;50.746;8.246;2023-09-30T09:25:20;9.53;;;3.27;;
82835;SDS011;72587;50.746;8.246;2023-09-30T09:27:48;6.80;;;2.93;;
82835;SDS011;72587;50.746;8.246;2023-09-30T09:30:14;9.47;;;3.07;;
82835;SDS011;72587;50.746;8.246;2023-09-30T09:32:51;6.57;;;2.70;;
82835;SDS011;72587;50.746;8.246;2023-09-30T09:35:19;9.10;;;2.73;;
82835;SDS011;72587;50.746;8.246;2023-09-30T09:40:32;8.70;;;2.80;;
82835;SDS011;72587;50.746;8.246;2023-09-30T09:42:59;10.83;;;4.00;;
82835;SDS011;72587;50.746;8.246;2023-09-30T09:45:29;7.60;;;3.00;;
82835;SDS011;72587;50.746;8.246;2023-09-30T09:47:57;12.50;;;2.80;;
82835;SDS011;72587;50.746;8.246;2023-09-30T09:50:23;8.63;;;2.20;;
82835;SDS011;72587;50.746;8.246;2023-09-30T09:52:49;8.70;;;2.23;;
82835;SDS011;72587;50.746;8.246;2023-09-30T09:55:19;9.20;;;1.93;;
82835;SDS011;72587;50.746;8.246;2023-09-30T09:57:47;8.60;;;1.90;;
82835;SDS011;72587;50.746;8.246;2023-09-30T10:00:21;8.20;;;2.33;;
82835;SDS011;72587;50.746;8.246;2023-09-30T10:02:48;7.67;;;2.07;;
82835;SDS011;72587;50.746;8.246;2023-09-30T10:05:15;7.80;;;1.93;;
82835;SDS011;72587;50.746;8.246;2023-09-30T10:07:52;7.43;;;1.80;;
82835;SDS011;72587;50.746;8.246;2023-09-30T10:10:22;5.57;;;1.83;;
82835;SDS011;72587;50.746;8.246;2023-09-30T10:12:49;8.73;;;2.20;;
82835;SDS011;72587;50.746;8.246;2023-09-30T10:17:59;4.80;;;1.50;;
82835;SDS011;72587;50.746;8.246;2023-09-30T10:20:28;8.40;;;1.83;;
82835;SDS011;72587;50.746;8.246;2023-09-30T10:23:17;8.27;;;2.60;;
82835;SDS011;72587;50.746;8.246;2023-09-30T10:25:43;7.60;;;1.87;;
82835;SDS011;72587;50.746;8.246;2023-09-30T10:31:10;8.17;;;2.60;;
82835;SDS011;72587;50.746;8.246;2023-09-30T10:33:40;8.73;;;2.17;;
82835;SDS011;72587;50.746;8.246;2023-09-30T10:36:43;7.23;;;1.40;;
82835;SDS011;72587;50.746;8.246;2023-09-30T10:39:11;4.57;;;1.20;;
82835;SDS011;72587;50.746;8.246;2023-09-30T10:46:50;5.17;;;1.40;;
82835;SDS011;72587;50.746;8.246;2023-09-30T10:51:48;5.30;;;1.40;;
82835;SDS011;72587;50.746;8.246;2023-09-30T10:54:24;7.77;;;1.60;;
82835;SDS011;72587;50.746;8.246;2023-09-30T10:56:51;7.67;;;1.57;;
82835;SDS011;72587;50.746;8.246;2023-09-30T10:59:28;5.27;;;1.53;;
82835;SDS011;72587;50.746;8.246;2023-09-30T11:01:59;6.93;;;1.77;;
82835;SDS011;72587;50.746;8.246;2023-09-30T11:04:25;6.50;;;1.70;;
82835;SDS011;72587;50.746;8.246;2023-09-30T11:06:54;6.37;;;1.80;;
82835;SDS011;72587;50.746;8.246;2023-09-30T11:09:20;6.50;;;1.40;;
82835;SDS011;72587;50.746;8.246;2023-09-30T11:11:48;5.50;;;1.47;;
82835;SDS011;72587;50.746;8.246;2023-09-30T11:14:25;6.80;;;1.60;;
82835;SDS011;72587;50.746;8.246;2023-09-30T11:16:56;29.60;;;12.70;;
82835;SDS011;72587;50.746;8.246;2023-09-30T11:19:24;6.43;;;1.67;;
82835;SDS011;72587;50.746;8.246;2023-09-30T11:21:51;7.30;;;1.80;;
82835;SDS011;72587;50.746;8.246;2023-09-30T11:24:17;4.63;;;1.20;;
82835;SDS011;72587;50.746;8.246;2023-09-30T11:26:44;5.10;;;1.23;;
82835;SDS011;72587;50.746;8.246;2023-09-30T11:29:14;7.70;;;1.43;;
82835;SDS011;72587;50.746;8.246;2023-09-30T11:31:41;10.63;;;1.93;;
82835;SDS011;72587;50.746;8.246;2023-09-30T11:34:12;12.27;;;1.70;;
82835;SDS011;72587;50.746;8.246;2023-09-30T11:36:56;6.63;;;1.80;;
82835;SDS011;72587;50.746;8.246;2023-09-30T11:39:22;4.93;;;1.47;;
82835;SDS011;72587;50.746;8.246;2023-09-30T11:41:49;6.63;;;1.40;;
82835;SDS011;72587;50.746;8.246;2023-09-30T11:44:15;6.30;;;1.87;;
82835;SDS011;72587;50.746;8.246;2023-09-30T11:46:49;5.93;;;1.50;;
82835;SDS011;72587;50.746;8.246;2023-09-30T11:49:52;5.67;;;1.17;;
82835;SDS011;72587;50.746;8.246;2023-09-30T11:52:15;5.03;;;1.30;;
82835;SDS011;72587;50.746;8.246;2023-09-30T11:54:41;8.40;;;1.67;;
82835;SDS011;72587;50.746;8.246;2023-09-30T11:57:11;5.00;;;1.30;;
82835;SDS011;72587;50.746;8.246;2023-09-30T11:59:40;6.30;;;1.50;;
82835;SDS011;72587;50.746;8.246;2023-09-30T12:02:09;9.50;;;1.50;;
82835;SDS011;72587;50.746;8.246;2023-09-30T12:04:35;5.57;;;1.30;;
82835;SDS011;72587;50.746;8.246;2023-09-30T12:07:02;4.87;;;1.20;;
82835;SDS011;72587;50.746;8.246;2023-09-30T12:09:27;7.17;;;1.20;;
82835;SDS011;72587;50.746;8.246;2023-09-30T12:11:55;4.03;;;1.33;;
82835;SDS011;72587;50.746;8.246;2023-09-30T12:14:22;6.77;;;1.37;;
82835;SDS011;72587;50.746;8.246;2023-09-30T12:16:49;5.47;;;1.50;;
82835;SDS011;72587;50.746;8.246;2023-09-30T12:19:16;6.17;;;1.57;;
82835;SDS011;72587;50.746;8.246;2023-09-30T12:21:45;6.43;;;1.53;;
82835;SDS011;72587;50.746;8.246;2023-09-30T12:24:16;4.47;;;1.90;;
82835;SDS011;72587;50.746;8.246;2023-09-30T12:26:47;8.73;;;1.63;;
82835;SDS011;72587;50.746;8.246;2023-09-30T12:29:17;5.60;;;1.50;;
82835;SDS011;72587;50.746;8.246;2023-09-30T12:31:44;7.40;;;1.73;;
82835;SDS011;72587;50.746;8.246;2023-09-30T12:34:11;6.40;;;1.77;;
82835;SDS011;72587;50.746;8.246;2023-09-30T12:36:38;3.97;;;1.60;;
82835;SDS011;72587;50.746;8.246;2023-09-30T12:39:07;6.03;;;1.40;;
82835;SDS011;72587;50.746;8.246;2023-09-30T12:41:40;5.53;;;1.60;;
82835;SDS011;72587;50.746;8.246;2023-09-30T12:44:07;4.23;;;1.27;;
82835;SDS011;72587;50.746;8.246;2023-09-30T12:46:33;4.23;;;1.37;;
82835;SDS011;72587;50.746;8.246;2023-09-30T12:48:59;5.10;;;1.40;;
82835;SDS011;72587;50.746;8.246;2023-09-30T12:51:29;6.73;;;1.43;;
82835;SDS011;72587;50.746;8.246;2023-09-30T12:53:55;7.67;;;1.80;;
82835;SDS011;72587;50.746;8.246;2023-09-30T12:56:22;5.43;;;1.60;;
82835;SDS011;72587;50.746;8.246;2023-09-30T12:58:48;6.20;;;1.70;;
82835;SDS011;72587;50.746;8.246;2023-09-30T13:01:14;5.63;;;1.40;;
82835;SDS011;72587;50.746;8.246;2023-09-30T13:03:41;5.93;;;1.60;;
82835;SDS011;72587;50.746;8.246;2023-09-30T13:06:06;7.67;;;1.60;;
82835;SDS011;72587;50.746;8.246;2023-09-30T13:08:32;6.43;;;1.40;;
82835;SDS011;72587;50.746;8.246;2023-09-30T13:11:01;5.53;;;1.53;;
82835;SDS011;72587;50.746;8.246;2023-09-30T13:13:31;7.23;;;1.70;;
82835;SDS011;72587;50.746;8.246;2023-09-30T13:15:58;4.63;;;1.57;;
82835;SDS011;72587;50.746;8.246;2023-09-30T13:18:24;4.53;;;1.30;;
82835;SDS011;72587;50.746;8.246;2023-09-30T13:20:50;4.73;;;1.30;;
82835;SDS011;72587;50.746;8.246;2023-09-30T13:23:17;5.43;;;1.40;;
82835;SDS011;72587;50.746;8.246;2023-09-30T13:25:43;4.13;;;1.50;;
82835;SDS011;72587;50.746;8.246;2023-09-30T13:28:09;5.10;;;1.50;;
82835;SDS011;72587;50.746;8.246;2023-09-30T13:30:35;3.40;;;1.20;;
82835;SDS011;72587;50.746;8.246;2023-09-30T13:33:00;3.83;;;1.23;;
82835;SDS011;72587;50.746;8.246;2023-09-30T13:35:26;6.37;;;1.57;;
82835;SDS011;72587;50.746;8.246;2023-09-30T13:37:52;6.53;;;1.70;;
82835;SDS011;72587;50.746;8.246;2023-09-30T13:40:17;5.27;;;1.70;;
82835;SDS011;72587;50.746;8.246;2023-09-30T13:42:44;4.83;;;1.50;;
82835;SDS011;72587;50.746;8.246;2023-09-30T13:45:10;2.87;;;1.37;;
82835;SDS011;72587;50.746;8.246;2023-09-30T13:47:36;7.87;;;1.70;;
82835;SDS011;72587;50.746;8.246;2023-09-30T13:50:02;8.70;;;1.60;;
82835;SDS011;72587;50.746;8.246;2023-09-30T13:52:32;4.83;;;1.90;;
82835;SDS011;72587;50.746;8.246;2023-09-30T13:54:59;6.90;;;2.33;;
82835;SDS011;72587;50.746;8.246;2023-09-30T13:57:24;7.20;;;1.50;;
82835;SDS011;72587;50.746;8.246;2023-09-30T13:59:50;4.70;;;1.47;;
82835;SDS011;72587;50.746;8.246;2023-09-30T14:02:15;4.47;;;1.60;;
82835;SDS011;72587;50.746;8.246;2023-09-30T14:04:41;4.40;;;1.60;;
82835;SDS011;72587;50.746;8.246;2023-09-30T14:07:07;4.47;;;1.80;;
82835;SDS011;72587;50.746;8.246;2023-09-30T14:09:33;5.97;;;1.70;;
82835;SDS011;72587;50.746;8.246;2023-09-30T14:11:59;7.93;;;2.33;;
82835;SDS011;72587;50.746;8.246;2023-09-30T14:14:24;6.53;;;1.90;;
82835;SDS011;72587;50.746;8.246;2023-09-30T14:16:50;7.47;;;1.77;;
82835;SDS011;72587;50.746;8.246;2023-09-30T14:19:17;6.50;;;1.73;;
82835;SDS011;72587;50.746;8.246;2023-09-30T14:21:42;7.03;;;1.50;;
82835;SDS011;72587;50.746;8.246;2023-09-30T14:24:08;7.00;;;2.07;;
82835;SDS011;72587;50.746;8.246;2023-09-30T14:26:33;7.10;;;2.77;;
82835;SDS011;72587;50.746;8.246;2023-09-30T14:28:59;6.70;;;1.77;;
82835;SDS011;72587;50.746;8.246;2023-09-30T14:31:25;5.10;;;2.03;;
82835;SDS011;72587;50.746;8.246;2023-09-30T14:33:51;13.00;;;2.30;;
82835;SDS011;72587;50.746;8.246;2023-09-30T14:36:17;10.77;;;2.13;;
82835;SDS011;72587;50.746;8.246;2023-09-30T14:38:46;10.23;;;2.57;;
82835;SDS011;72587;50.746;8.246;2023-09-30T14:41:12;6.47;;;1.80;;
82835;SDS011;72587;50.746;8.246;2023-09-30T14:43:40;11.60;;;1.80;;
82835;SDS011;72587;50.746;8.246;2023-09-30T14:46:06;6.43;;;1.77;;
82835;SDS011;72587;50.746;8.246;2023-09-30T14:48:33;16.13;;;2.70;;
82835;SDS011;72587;50.746;8.246;2023-09-30T14:50:59;10.60;;;2.17;;
82835;SDS011;72587;50.746;8.246;2023-09-30T14:53:25;7.10;;;2.37;;
82835;SDS011;72587;50.746;8.246;2023-09-30T14:55:50;13.53;;;2.43;;
82835;SDS011;72587;50.746;8.246;2023-09-30T14:58:16;10.80;;;1.97;;